Last 30 days

Temperature [°C]

Date Min. Avg. Max.

Humidity [%]

Date Min. Avg. Max.

Pressure [hPa]

Date Min. Avg. Max.
2018-04-27 1 014 1 014 1 014
2018-04-28 1 011 1 012 1 014
2018-04-29 1 010 1 012 1 014
2018-04-30 999 1 003 1 009
2018-05-01 1 007 1 009 1 015
2018-05-02 1 013 1 017 1 019
2018-05-03 1 011 1 014 1 018
2018-05-05 1 028 1 029 1 031
2018-05-06 1 027 1 029 1 031
2018-05-07 1 022 1 025 1 027
2018-05-08 1 015 1 019 1 022
2018-05-09 1 011 1 013 1 015
2018-05-10 1 010 1 010 1 011
2018-05-13 1 015 1 017 1 018
2018-05-14 1 016 1 017 1 019
2018-05-15 1 015 1 017 1 019
2018-05-16 1 013 1 014 1 015
2018-05-17 1 012 1 014 1 016
2018-05-18 1 016 1 019 1 022
2018-05-19 1 022 1 024 1 027
2018-05-20 1 027 1 028 1 029
2018-05-21 1 020 1 024 1 028
2018-05-22 1 017 1 019 1 020
2018-05-23 1 020 1 024 1 026
2018-05-24 1 024 1 026 1 028
2018-05-25 1 023 1 024 1 025
2018-05-26 1 024 1 024 1 025
2018-05-27 1 022 1 024 1 025
2018-05-28 1 023 1 023 1 023

Wind speed [m/s]

Date Min. Avg. Max.
2018-04-27 3,6 3,6 3,6
2018-04-28 1,0 3,2 5,7
2018-04-29 1,0 2,9 5,1
2018-04-30 1,5 5,8 9,3
2018-05-01 2,1 5,5 9,3
2018-05-02 0,5 2,7 4,6
2018-05-03 1,9 3,9 6,9
2018-05-05 0,5 2,7 5,7
2018-05-06 1,0 2,8 5,1
2018-05-07 0,5 2,8 4,6
2018-05-08 1,5 3,6 5,1
2018-05-09 2,6 3,9 6,7
2018-05-10 2,6 4,0 5,7
2018-05-13 1,5 4,6 7,7
2018-05-14 1,5 4,2 6,7
2018-05-15 1,5 3,0 6,2
2018-05-16 1,5 3,4 5,7
2018-05-17 1,5 4,4 7,7
2018-05-18 1,5 3,8 5,7
2018-05-19 1,0 3,3 6,2
2018-05-20 1,5 3,2 5,1
2018-05-21 1,5 4,1 6,7
2018-05-22 1,5 2,6 4,6
2018-05-23 1,5 3,3 5,7
2018-05-24 2,6 4,3 7,2
2018-05-25 2,6 3,8 6,2
2018-05-26 0,5 2,6 4,6
2018-05-27 1,5 3,7 6,7
2018-05-28 4,1 4,3 4,6

Temperature Internal [°C]

Date Min. Avg. Max.
2018-04-27 22,3 22,4 22,5
2018-04-28 21,1 22,5 23,9
2018-04-29 22,3 23,3 24,0
2018-04-30 22,1 23,5 24,9
2018-05-01 21,5 22,7 23,5
2018-05-02 19,2 21,2 22,6
2018-05-03 20,4 21,3 22,5
2018-05-05 18,3 20,7 21,8
2018-05-06 20,5 22,1 23,0
2018-05-07 21,2 23,1 24,3
2018-05-08 22,8 23,9 25,2
2018-05-09 23,8 25,0 26,3
2018-05-10 25,4 25,6 25,9
2018-05-13 23,8 25,1 26,2
2018-05-14 25,1 25,7 26,5
2018-05-15 22,3 24,3 25,4
2018-05-16 23,2 24,3 25,0
2018-05-17 22,4 23,8 24,7
2018-05-18 21,8 22,9 24,0
2018-05-19 22,7 23,7 24,4
2018-05-20 22,0 23,4 24,6
2018-05-21 22,8 24,4 25,7
2018-05-22 23,6 24,7 25,4
2018-05-23 22,9 24,3 25,3
2018-05-24 23,4 25,0 26,5
2018-05-25 24,1 25,3 26,2
2018-05-26 25,0 26,2 26,9
2018-05-27 25,2 26,4 27,8
2018-05-28 24,7 25,0 25,3

Light level []

Date Min. Avg. Max.
2018-04-27 0 0 0
2018-04-28 0 457 960
2018-04-29 0 1 172 33 122
2018-04-30 0 554 966
2018-05-01 0 540 959
2018-05-02 0 503 965
2018-05-03 0 559 976
2018-05-05 0 610 968
2018-05-06 0 507 939
2018-05-07 0 562 939
2018-05-08 0 574 944
2018-05-09 0 551 942
2018-05-10 0 1 21
2018-05-13 0 637 949
2018-05-14 0 248 904
2018-05-15 0 0 0
2018-05-16 0 666 975
2018-05-17 0 584 962
2018-05-18 0 604 975
2018-05-19 0 588 961
2018-05-20 0 582 961
2018-05-21 0 575 966
2018-05-22 0 543 966
2018-05-23 0 617 962
2018-05-24 0 614 966
2018-05-25 0 662 973
2018-05-26 0 665 974
2018-05-27 0 547 971
2018-05-28 0 0 0